sensor_id;sensor_type;location;lat;lon;timestamp;P1;durP1;ratioP1;P2;durP2;ratioP2
23360;SDS011;11852;50.082;18.554;2023-02-08T00:00:21;105.7;;;53.4;;
23360;SDS011;11852;50.082;18.554;2023-02-08T00:01:30;111.5;;;55.0;;
23360;SDS011;11852;50.082;18.554;2023-02-08T00:02:38;108.4;;;55.3;;
23360;SDS011;11852;50.082;18.554;2023-02-08T00:03:47;106.9;;;54.0;;
23360;SDS011;11852;50.082;18.554;2023-02-08T00:04:55;113.5;;;56.4;;
23360;SDS011;11852;50.082;18.554;2023-02-08T00:06:05;102.9;;;53.4;;
23360;SDS011;11852;50.082;18.554;2023-02-08T00:07:14;114.6;;;58.2;;
23360;SDS011;11852;50.082;18.554;2023-02-08T00:08:22;112.6;;;57.3;;
23360;SDS011;11852;50.082;18.554;2023-02-08T00:09:30;107.6;;;53.4;;
23360;SDS011;11852;50.082;18.554;2023-02-08T00:10:40;114.8;;;56.5;;
23360;SDS011;11852;50.082;18.554;2023-02-08T00:11:50;116.9;;;58.6;;
23360;SDS011;11852;50.082;18.554;2023-02-08T00:12:59;114.3;;;56.0;;
23360;SDS011;11852;50.082;18.554;2023-02-08T00:14:08;117.4;;;55.3;;
23360;SDS011;11852;50.082;18.554;2023-02-08T00:15:18;120.8;;;58.6;;
23360;SDS011;11852;50.082;18.554;2023-02-08T00:16:27;127.0;;;59.9;;
23360;SDS011;11852;50.082;18.554;2023-02-08T00:17:35;115.7;;;55.7;;
23360;SDS011;11852;50.082;18.554;2023-02-08T00:18:44;119.1;;;58.7;;
23360;SDS011;11852;50.082;18.554;2023-02-08T00:19:51;117.6;;;58.0;;
23360;SDS011;11852;50.082;18.554;2023-02-08T00:20:59;109.9;;;53.9;;
23360;SDS011;11852;50.082;18.554;2023-02-08T00:22:08;118.1;;;54.9;;
23360;SDS011;11852;50.082;18.554;2023-02-08T00:23:16;119.4;;;58.3;;
23360;SDS011;11852;50.082;18.554;2023-02-08T00:24:24;112.3;;;56.9;;
23360;SDS011;11852;50.082;18.554;2023-02-08T00:25:31;116.8;;;56.7;;
23360;SDS011;11852;50.082;18.554;2023-02-08T00:26:39;117.4;;;58.3;;
23360;SDS011;11852;50.082;18.554;2023-02-08T00:27:48;115.6;;;56.9;;
23360;SDS011;11852;50.082;18.554;2023-02-08T00:28:56;115.1;;;55.9;;
23360;SDS011;11852;50.082;18.554;2023-02-08T00:30:04;118.6;;;58.5;;
23360;SDS011;11852;50.082;18.554;2023-02-08T00:31:13;114.3;;;56.7;;
23360;SDS011;11852;50.082;18.554;2023-02-08T00:32:21;113.4;;;56.9;;
23360;SDS011;11852;50.082;18.554;2023-02-08T00:33:31;111.0;;;54.2;;
23360;SDS011;11852;50.082;18.554;2023-02-08T00:34:39;110.8;;;55.4;;
23360;SDS011;11852;50.082;18.554;2023-02-08T00:35:47;108.0;;;54.9;;
23360;SDS011;11852;50.082;18.554;2023-02-08T00:36:57;112.7;;;56.8;;
23360;SDS011;11852;50.082;18.554;2023-02-08T00:38:05;111.5;;;55.4;;
23360;SDS011;11852;50.082;18.554;2023-02-08T00:39:13;104.9;;;51.5;;
23360;SDS011;11852;50.082;18.554;2023-02-08T00:40:22;107.7;;;54.1;;
23360;SDS011;11852;50.082;18.554;2023-02-08T00:41:30;114.4;;;57.4;;
23360;SDS011;11852;50.082;18.554;2023-02-08T00:42:38;104.3;;;52.9;;
23360;SDS011;11852;50.082;18.554;2023-02-08T00:43:47;108.3;;;54.7;;
23360;SDS011;11852;50.082;18.554;2023-02-08T00:44:56;105.1;;;55.1;;
23360;SDS011;11852;50.082;18.554;2023-02-08T00:46:05;103.7;;;53.9;;
23360;SDS011;11852;50.082;18.554;2023-02-08T00:47:13;106.5;;;53.0;;
23360;SDS011;11852;50.082;18.554;2023-02-08T00:48:21;103.9;;;53.4;;
23360;SDS011;11852;50.082;18.554;2023-02-08T00:49:30;107.0;;;54.3;;
23360;SDS011;11852;50.082;18.554;2023-02-08T00:50:37;107.7;;;54.0;;
23360;SDS011;11852;50.082;18.554;2023-02-08T00:51:46;103.4;;;54.3;;
23360;SDS011;11852;50.082;18.554;2023-02-08T00:52:55;103.8;;;53.1;;
23360;SDS011;11852;50.082;18.554;2023-02-08T00:54:03;104.3;;;53.6;;
23360;SDS011;11852;50.082;18.554;2023-02-08T00:55:11;99.8;;;52.8;;
23360;SDS011;11852;50.082;18.554;2023-02-08T00:56:18;108.7;;;54.9;;
23360;SDS011;11852;50.082;18.554;2023-02-08T00:57:28;108.4;;;54.4;;
23360;SDS011;11852;50.082;18.554;2023-02-08T00:58:37;107.8;;;54.4;;
23360;SDS011;11852;50.082;18.554;2023-02-08T00:59:46;111.0;;;57.9;;
23360;SDS011;11852;50.082;18.554;2023-02-08T01:00:55;107.8;;;55.9;;
23360;SDS011;11852;50.082;18.554;2023-02-08T01:02:05;111.7;;;57.4;;
23360;SDS011;11852;50.082;18.554;2023-02-08T01:03:13;113.5;;;56.9;;
23360;SDS011;11852;50.082;18.554;2023-02-08T01:04:23;103.1;;;52.7;;
23360;SDS011;11852;50.082;18.554;2023-02-08T01:05:31;110.7;;;56.9;;
23360;SDS011;11852;50.082;18.554;2023-02-08T01:06:40;110.8;;;56.0;;
23360;SDS011;11852;50.082;18.554;2023-02-08T01:07:48;113.3;;;57.2;;
23360;SDS011;11852;50.082;18.554;2023-02-08T01:08:57;118.9;;;59.0;;
23360;SDS011;11852;50.082;18.554;2023-02-08T01:10:05;117.9;;;59.9;;
23360;SDS011;11852;50.082;18.554;2023-02-08T01:11:15;122.6;;;60.3;;
23360;SDS011;11852;50.082;18.554;2023-02-08T01:12:21;125.3;;;60.1;;
23360;SDS011;11852;50.082;18.554;2023-02-08T01:13:30;121.7;;;59.2;;
23360;SDS011;11852;50.082;18.554;2023-02-08T01:14:38;117.7;;;60.7;;
23360;SDS011;11852;50.082;18.554;2023-02-08T01:15:46;115.4;;;58.1;;
23360;SDS011;11852;50.082;18.554;2023-02-08T01:16:55;114.6;;;56.0;;
23360;SDS011;11852;50.082;18.554;2023-02-08T01:18:03;113.0;;;55.3;;
23360;SDS011;11852;50.082;18.554;2023-02-08T01:19:11;108.8;;;54.3;;
23360;SDS011;11852;50.082;18.554;2023-02-08T01:20:18;108.9;;;54.5;;
23360;SDS011;11852;50.082;18.554;2023-02-08T01:21:28;109.4;;;54.5;;
23360;SDS011;11852;50.082;18.554;2023-02-08T01:22:34;110.8;;;57.3;;
23360;SDS011;11852;50.082;18.554;2023-02-08T01:23:43;110.9;;;56.7;;
23360;SDS011;11852;50.082;18.554;2023-02-08T01:24:51;113.4;;;55.3;;
23360;SDS011;11852;50.082;18.554;2023-02-08T01:25:59;115.9;;;56.2;;
23360;SDS011;11852;50.082;18.554;2023-02-08T01:27:08;110.0;;;54.9;;
23360;SDS011;11852;50.082;18.554;2023-02-08T01:28:16;110.1;;;55.7;;
23360;SDS011;11852;50.082;18.554;2023-02-08T01:29:26;107.9;;;52.9;;
23360;SDS011;11852;50.082;18.554;2023-02-08T01:30:35;106.9;;;55.0;;
23360;SDS011;11852;50.082;18.554;2023-02-08T01:31:43;104.8;;;52.0;;
23360;SDS011;11852;50.082;18.554;2023-02-08T01:32:53;105.1;;;51.1;;
23360;SDS011;11852;50.082;18.554;2023-02-08T01:34:01;99.6;;;51.7;;
23360;SDS011;11852;50.082;18.554;2023-02-08T01:35:09;113.6;;;56.9;;
23360;SDS011;11852;50.082;18.554;2023-02-08T01:36:17;100.6;;;50.8;;
23360;SDS011;11852;50.082;18.554;2023-02-08T01:37:27;102.4;;;50.6;;
23360;SDS011;11852;50.082;18.554;2023-02-08T01:38:35;102.5;;;53.2;;
23360;SDS011;11852;50.082;18.554;2023-02-08T01:39:43;99.8;;;51.1;;
23360;SDS011;11852;50.082;18.554;2023-02-08T01:40:51;105.1;;;53.7;;
23360;SDS011;11852;50.082;18.554;2023-02-08T01:42:00;96.9;;;48.8;;
23360;SDS011;11852;50.082;18.554;2023-02-08T01:43:13;102.3;;;53.2;;
23360;SDS011;11852;50.082;18.554;2023-02-08T01:45:27;100.6;;;51.1;;
23360;SDS011;11852;50.082;18.554;2023-02-08T01:46:35;101.4;;;51.6;;
23360;SDS011;11852;50.082;18.554;2023-02-08T01:47:42;104.0;;;52.3;;
23360;SDS011;11852;50.082;18.554;2023-02-08T01:48:49;98.9;;;51.0;;
23360;SDS011;11852;50.082;18.554;2023-02-08T01:50:00;93.2;;;48.0;;
23360;SDS011;11852;50.082;18.554;2023-02-08T01:51:09;95.3;;;48.3;;
23360;SDS011;11852;50.082;18.554;2023-02-08T01:52:18;98.2;;;50.2;;
23360;SDS011;11852;50.082;18.554;2023-02-08T01:53:27;94.5;;;49.5;;
23360;SDS011;11852;50.082;18.554;2023-02-08T01:54:36;92.1;;;46.7;;
23360;SDS011;11852;50.082;18.554;2023-02-08T01:55:46;91.0;;;49.0;;
23360;SDS011;11852;50.082;18.554;2023-02-08T01:56:52;87.9;;;46.7;;
23360;SDS011;11852;50.082;18.554;2023-02-08T01:58:03;92.6;;;49.5;;
23360;SDS011;11852;50.082;18.554;2023-02-08T01:59:13;92.0;;;48.5;;
23360;SDS011;11852;50.082;18.554;2023-02-08T02:00:19;95.6;;;50.1;;
23360;SDS011;11852;50.082;18.554;2023-02-08T02:01:27;97.0;;;51.6;;
23360;SDS011;11852;50.082;18.554;2023-02-08T02:02:37;92.3;;;49.3;;
23360;SDS011;11852;50.082;18.554;2023-02-08T02:03:46;99.2;;;51.3;;
23360;SDS011;11852;50.082;18.554;2023-02-08T02:04:55;95.2;;;50.9;;
23360;SDS011;11852;50.082;18.554;2023-02-08T02:06:09;97.0;;;51.0;;
23360;SDS011;11852;50.082;18.554;2023-02-08T02:07:18;92.4;;;50.0;;
23360;SDS011;11852;50.082;18.554;2023-02-08T02:08:26;96.1;;;52.5;;
23360;SDS011;11852;50.082;18.554;2023-02-08T02:09:41;101.0;;;51.4;;
23360;SDS011;11852;50.082;18.554;2023-02-08T02:10:47;99.3;;;50.9;;
23360;SDS011;11852;50.082;18.554;2023-02-08T02:11:57;96.5;;;50.2;;
23360;SDS011;11852;50.082;18.554;2023-02-08T02:13:09;93.7;;;49.1;;
23360;SDS011;11852;50.082;18.554;2023-02-08T02:14:16;91.2;;;47.6;;
23360;SDS011;11852;50.082;18.554;2023-02-08T02:15:25;91.2;;;47.6;;
23360;SDS011;11852;50.082;18.554;2023-02-08T02:16:32;94.7;;;49.6;;
23360;SDS011;11852;50.082;18.554;2023-02-08T02:17:41;96.1;;;51.1;;
23360;SDS011;11852;50.082;18.554;2023-02-08T02:18:50;96.0;;;52.2;;
23360;SDS011;11852;50.082;18.554;2023-02-08T02:21:24;111.2;;;55.0;;
23360;SDS011;11852;50.082;18.554;2023-02-08T02:22:40;110.3;;;56.0;;
23360;SDS011;11852;50.082;18.554;2023-02-08T02:25:06;97.6;;;50.0;;
23360;SDS011;11852;50.082;18.554;2023-02-08T02:36:25;86.5;;;47.3;;
23360;SDS011;11852;50.082;18.554;2023-02-08T02:37:35;89.0;;;47.6;;
23360;SDS011;11852;50.082;18.554;2023-02-08T02:42:41;81.0;;;43.0;;
23360;SDS011;11852;50.082;18.554;2023-02-08T02:43:46;80.3;;;43.3;;
23360;SDS011;11852;50.082;18.554;2023-02-08T02:47:37;80.2;;;42.7;;
23360;SDS011;11852;50.082;18.554;2023-02-08T02:51:19;75.1;;;40.8;;
23360;SDS011;11852;50.082;18.554;2023-02-08T02:52:34;75.2;;;40.4;;
23360;SDS011;11852;50.082;18.554;2023-02-08T02:54:54;75.0;;;41.7;;
23360;SDS011;11852;50.082;18.554;2023-02-08T02:56:22;75.5;;;41.0;;
23360;SDS011;11852;50.082;18.554;2023-02-08T02:57:15;76.3;;;42.8;;
23360;SDS011;11852;50.082;18.554;2023-02-08T02:58:22;78.6;;;42.0;;
23360;SDS011;11852;50.082;18.554;2023-02-08T02:59:33;79.9;;;42.5;;
23360;SDS011;11852;50.082;18.554;2023-02-08T03:00:42;86.1;;;43.3;;
23360;SDS011;11852;50.082;18.554;2023-02-08T03:01:53;79.1;;;41.9;;
23360;SDS011;11852;50.082;18.554;2023-02-08T03:03:01;80.0;;;43.0;;
23360;SDS011;11852;50.082;18.554;2023-02-08T03:04:13;80.9;;;43.4;;
23360;SDS011;11852;50.082;18.554;2023-02-08T03:05:20;76.9;;;43.5;;
23360;SDS011;11852;50.082;18.554;2023-02-08T03:11:37;82.0;;;44.2;;
23360;SDS011;11852;50.082;18.554;2023-02-08T03:17:56;83.4;;;43.1;;
23360;SDS011;11852;50.082;18.554;2023-02-08T03:19:01;84.5;;;44.2;;
23360;SDS011;11852;50.082;18.554;2023-02-08T03:20:08;85.7;;;45.9;;
23360;SDS011;11852;50.082;18.554;2023-02-08T03:22:41;82.6;;;44.7;;
23360;SDS011;11852;50.082;18.554;2023-02-08T03:25:10;82.2;;;43.6;;
23360;SDS011;11852;50.082;18.554;2023-02-08T03:27:31;81.6;;;44.5;;
23360;SDS011;11852;50.082;18.554;2023-02-08T03:31:14;81.6;;;43.1;;
23360;SDS011;11852;50.082;18.554;2023-02-08T03:32:41;88.1;;;45.5;;
23360;SDS011;11852;50.082;18.554;2023-02-08T03:33:34;88.4;;;45.3;;
23360;SDS011;11852;50.082;18.554;2023-02-08T03:35:58;87.7;;;46.5;;
23360;SDS011;11852;50.082;18.554;2023-02-08T03:37:07;88.7;;;45.6;;
23360;SDS011;11852;50.082;18.554;2023-02-08T03:38:21;87.0;;;45.8;;
23360;SDS011;11852;50.082;18.554;2023-02-08T03:39:29;87.5;;;45.7;;
23360;SDS011;11852;50.082;18.554;2023-02-08T03:40:41;89.5;;;46.1;;
23360;SDS011;11852;50.082;18.554;2023-02-08T03:41:50;89.2;;;47.1;;
23360;SDS011;11852;50.082;18.554;2023-02-08T03:43:00;87.4;;;45.0;;
23360;SDS011;11852;50.082;18.554;2023-02-08T03:45:28;83.3;;;44.8;;
23360;SDS011;11852;50.082;18.554;2023-02-08T03:47:22;86.7;;;46.2;;
23360;SDS011;11852;50.082;18.554;2023-02-08T03:47:50;82.7;;;44.4;;
23360;SDS011;11852;50.082;18.554;2023-02-08T03:49:01;84.9;;;44.5;;
23360;SDS011;11852;50.082;18.554;2023-02-08T03:50:08;88.9;;;45.6;;
23360;SDS011;11852;50.082;18.554;2023-02-08T03:51:16;87.7;;;46.4;;
23360;SDS011;11852;50.082;18.554;2023-02-08T03:52:25;82.3;;;44.4;;
23360;SDS011;11852;50.082;18.554;2023-02-08T03:53:34;87.7;;;46.6;;
23360;SDS011;11852;50.082;18.554;2023-02-08T03:54:43;82.8;;;45.8;;
23360;SDS011;11852;50.082;18.554;2023-02-08T03:55:51;84.5;;;43.9;;
23360;SDS011;11852;50.082;18.554;2023-02-08T03:59:28;86.1;;;44.8;;
23360;SDS011;11852;50.082;18.554;2023-02-08T04:00:35;84.0;;;42.5;;
23360;SDS011;11852;50.082;18.554;2023-02-08T04:01:42;83.1;;;44.1;;
23360;SDS011;11852;50.082;18.554;2023-02-08T04:02:52;81.7;;;44.1;;
23360;SDS011;11852;50.082;18.554;2023-02-08T04:04:01;86.6;;;47.1;;
23360;SDS011;11852;50.082;18.554;2023-02-08T04:05:11;83.0;;;44.6;;
23360;SDS011;11852;50.082;18.554;2023-02-08T04:06:19;88.9;;;47.3;;
23360;SDS011;11852;50.082;18.554;2023-02-08T04:07:27;86.0;;;45.6;;
23360;SDS011;11852;50.082;18.554;2023-02-08T04:08:38;87.7;;;44.9;;
23360;SDS011;11852;50.082;18.554;2023-02-08T04:09:46;85.1;;;45.4;;
23360;SDS011;11852;50.082;18.554;2023-02-08T04:10:55;85.2;;;46.1;;
23360;SDS011;11852;50.082;18.554;2023-02-08T04:12:04;85.7;;;44.7;;
23360;SDS011;11852;50.082;18.554;2023-02-08T04:13:15;85.4;;;44.7;;
23360;SDS011;11852;50.082;18.554;2023-02-08T04:14:23;89.2;;;46.3;;
23360;SDS011;11852;50.082;18.554;2023-02-08T04:15:35;89.2;;;46.3;;
23360;SDS011;11852;50.082;18.554;2023-02-08T04:16:43;89.2;;;46.3;;
23360;SDS011;11852;50.082;18.554;2023-02-08T04:17:52;85.0;;;45.8;;
23360;SDS011;11852;50.082;18.554;2023-02-08T04:19:01;90.0;;;48.0;;
23360;SDS011;11852;50.082;18.554;2023-02-08T04:20:10;91.7;;;48.0;;
23360;SDS011;11852;50.082;18.554;2023-02-08T04:21:19;91.6;;;47.9;;
23360;SDS011;11852;50.082;18.554;2023-02-08T04:22:28;87.4;;;46.8;;
23360;SDS011;11852;50.082;18.554;2023-02-08T04:23:37;90.9;;;49.4;;
23360;SDS011;11852;50.082;18.554;2023-02-08T04:24:46;89.2;;;44.9;;
23360;SDS011;11852;50.082;18.554;2023-02-08T04:25:53;90.3;;;49.2;;
23360;SDS011;11852;50.082;18.554;2023-02-08T04:27:02;91.2;;;47.5;;
23360;SDS011;11852;50.082;18.554;2023-02-08T04:28:10;89.5;;;47.3;;
23360;SDS011;11852;50.082;18.554;2023-02-08T04:29:20;84.8;;;46.1;;
23360;SDS011;11852;50.082;18.554;2023-02-08T04:30:30;93.2;;;49.8;;
23360;SDS011;11852;50.082;18.554;2023-02-08T04:31:38;89.0;;;47.7;;
23360;SDS011;11852;50.082;18.554;2023-02-08T04:32:46;91.9;;;48.6;;
23360;SDS011;11852;50.082;18.554;2023-02-08T04:33:55;93.7;;;50.2;;
23360;SDS011;11852;50.082;18.554;2023-02-08T04:35:03;95.2;;;51.2;;
23360;SDS011;11852;50.082;18.554;2023-02-08T04:36:12;92.5;;;49.8;;
23360;SDS011;11852;50.082;18.554;2023-02-08T04:37:21;90.3;;;48.7;;
23360;SDS011;11852;50.082;18.554;2023-02-08T04:38:29;91.8;;;49.7;;
23360;SDS011;11852;50.082;18.554;2023-02-08T04:39:38;95.3;;;49.9;;
23360;SDS011;11852;50.082;18.554;2023-02-08T04:40:47;96.2;;;50.6;;
23360;SDS011;11852;50.082;18.554;2023-02-08T04:41:57;93.7;;;49.8;;
23360;SDS011;11852;50.082;18.554;2023-02-08T04:43:07;100.8;;;53.4;;
23360;SDS011;11852;50.082;18.554;2023-02-08T04:44:15;98.3;;;52.4;;
23360;SDS011;11852;50.082;18.554;2023-02-08T04:45:23;95.9;;;51.1;;
23360;SDS011;11852;50.082;18.554;2023-02-08T04:46:31;99.9;;;52.0;;
23360;SDS011;11852;50.082;18.554;2023-02-08T04:47:40;95.6;;;52.3;;
23360;SDS011;11852;50.082;18.554;2023-02-08T04:48:48;101.7;;;53.9;;
23360;SDS011;11852;50.082;18.554;2023-02-08T04:49:57;97.4;;;49.9;;
23360;SDS011;11852;50.082;18.554;2023-02-08T04:51:06;96.8;;;53.4;;
23360;SDS011;11852;50.082;18.554;2023-02-08T04:52:16;101.2;;;54.9;;
23360;SDS011;11852;50.082;18.554;2023-02-08T04:53:25;104.9;;;55.1;;
23360;SDS011;11852;50.082;18.554;2023-02-08T04:54:33;100.7;;;53.1;;
23360;SDS011;11852;50.082;18.554;2023-02-08T04:55:42;103.8;;;54.9;;
23360;SDS011;11852;50.082;18.554;2023-02-08T04:56:49;101.1;;;52.9;;
23360;SDS011;11852;50.082;18.554;2023-02-08T04:57:57;101.1;;;53.4;;
23360;SDS011;11852;50.082;18.554;2023-02-08T04:59:06;101.1;;;54.6;;
23360;SDS011;11852;50.082;18.554;2023-02-08T05:00:13;101.1;;;53.6;;
23360;SDS011;11852;50.082;18.554;2023-02-08T05:01:22;98.8;;;52.6;;
23360;SDS011;11852;50.082;18.554;2023-02-08T05:02:32;98.4;;;53.1;;
23360;SDS011;11852;50.082;18.554;2023-02-08T05:03:40;98.8;;;53.7;;
23360;SDS011;11852;50.082;18.554;2023-02-08T05:04:50;99.0;;;51.7;;
23360;SDS011;11852;50.082;18.554;2023-02-08T05:06:00;99.0;;;52.8;;
23360;SDS011;11852;50.082;18.554;2023-02-08T05:07:08;99.0;;;52.8;;
23360;SDS011;11852;50.082;18.554;2023-02-08T05:08:16;103.8;;;54.7;;
23360;SDS011;11852;50.082;18.554;2023-02-08T05:09:25;99.9;;;53.5;;
23360;SDS011;11852;50.082;18.554;2023-02-08T05:10:35;99.2;;;52.4;;
23360;SDS011;11852;50.082;18.554;2023-02-08T05:11:43;97.3;;;52.6;;
23360;SDS011;11852;50.082;18.554;2023-02-08T05:12:53;99.4;;;52.6;;
23360;SDS011;11852;50.082;18.554;2023-02-08T05:14:01;99.6;;;53.0;;
23360;SDS011;11852;50.082;18.554;2023-02-08T05:15:10;96.0;;;50.2;;
23360;SDS011;11852;50.082;18.554;2023-02-08T05:16:18;98.6;;;53.3;;
23360;SDS011;11852;50.082;18.554;2023-02-08T05:17:26;99.8;;;52.9;;
23360;SDS011;11852;50.082;18.554;2023-02-08T05:18:36;98.6;;;54.0;;
23360;SDS011;11852;50.082;18.554;2023-02-08T05:19:44;98.5;;;52.8;;
23360;SDS011;11852;50.082;18.554;2023-02-08T05:20:56;100.2;;;54.8;;
23360;SDS011;11852;50.082;18.554;2023-02-08T05:22:06;99.6;;;53.4;;
23360;SDS011;11852;50.082;18.554;2023-02-08T05:23:14;104.1;;;53.3;;
23360;SDS011;11852;50.082;18.554;2023-02-08T05:24:22;102.2;;;54.8;;
23360;SDS011;11852;50.082;18.554;2023-02-08T05:25:31;99.3;;;53.4;;
23360;SDS011;11852;50.082;18.554;2023-02-08T05:26:39;95.3;;;50.7;;
23360;SDS011;11852;50.082;18.554;2023-02-08T05:27:50;101.5;;;53.6;;
23360;SDS011;11852;50.082;18.554;2023-02-08T05:28:58;102.4;;;55.6;;
23360;SDS011;11852;50.082;18.554;2023-02-08T05:30:07;97.4;;;53.4;;
23360;SDS011;11852;50.082;18.554;2023-02-08T05:31:18;104.8;;;55.9;;
23360;SDS011;11852;50.082;18.554;2023-02-08T05:32:26;104.4;;;55.8;;
23360;SDS011;11852;50.082;18.554;2023-02-08T05:33:35;107.7;;;57.8;;
23360;SDS011;11852;50.082;18.554;2023-02-08T05:34:44;108.0;;;57.6;;
23360;SDS011;11852;50.082;18.554;2023-02-08T05:35:55;110.4;;;58.6;;
23360;SDS011;11852;50.082;18.554;2023-02-08T05:37:03;112.7;;;59.7;;
23360;SDS011;11852;50.082;18.554;2023-02-08T05:38:12;114.1;;;62.1;;
23360;SDS011;11852;50.082;18.554;2023-02-08T05:39:19;115.7;;;61.5;;
23360;SDS011;11852;50.082;18.554;2023-02-08T05:40:27;107.6;;;56.0;;
23360;SDS011;11852;50.082;18.554;2023-02-08T05:41:37;109.5;;;59.2;;
23360;SDS011;11852;50.082;18.554;2023-02-08T05:42:45;107.3;;;56.2;;
23360;SDS011;11852;50.082;18.554;2023-02-08T05:43:54;110.6;;;58.5;;
23360;SDS011;11852;50.082;18.554;2023-02-08T05:45:03;102.2;;;52.2;;
23360;SDS011;11852;50.082;18.554;2023-02-08T05:46:10;104.9;;;56.3;;
23360;SDS011;11852;50.082;18.554;2023-02-08T05:47:19;105.2;;;56.6;;
23360;SDS011;11852;50.082;18.554;2023-02-08T05:48:29;102.4;;;54.3;;
23360;SDS011;11852;50.082;18.554;2023-02-08T05:49:37;102.5;;;54.6;;
23360;SDS011;11852;50.082;18.554;2023-02-08T05:50:46;101.2;;;54.9;;
23360;SDS011;11852;50.082;18.554;2023-02-08T05:51:55;104.7;;;56.3;;
23360;SDS011;11852;50.082;18.554;2023-02-08T05:53:03;97.6;;;53.3;;
23360;SDS011;11852;50.082;18.554;2023-02-08T05:54:13;98.9;;;53.5;;
23360;SDS011;11852;50.082;18.554;2023-02-08T05:55:22;104.2;;;54.1;;
23360;SDS011;11852;50.082;18.554;2023-02-08T05:56:31;108.0;;;56.3;;
23360;SDS011;11852;50.082;18.554;2023-02-08T05:57:40;108.0;;;56.3;;
23360;SDS011;11852;50.082;18.554;2023-02-08T05:58:48;102.7;;;54.1;;
23360;SDS011;11852;50.082;18.554;2023-02-08T05:59:56;105.5;;;56.7;;
23360;SDS011;11852;50.082;18.554;2023-02-08T06:01:08;101.9;;;53.0;;
23360;SDS011;11852;50.082;18.554;2023-02-08T06:02:18;104.0;;;54.9;;
23360;SDS011;11852;50.082;18.554;2023-02-08T06:03:28;109.0;;;59.6;;
23360;SDS011;11852;50.082;18.554;2023-02-08T06:04:37;119.1;;;62.0;;
23360;SDS011;11852;50.082;18.554;2023-02-08T06:05:49;115.3;;;60.1;;
23360;SDS011;11852;50.082;18.554;2023-02-08T06:06:57;117.0;;;64.2;;
23360;SDS011;11852;50.082;18.554;2023-02-08T06:08:04;117.0;;;63.5;;
23360;SDS011;11852;50.082;18.554;2023-02-08T06:09:14;118.2;;;62.6;;
23360;SDS011;11852;50.082;18.554;2023-02-08T06:10:23;117.3;;;62.9;;
23360;SDS011;11852;50.082;18.554;2023-02-08T06:11:33;114.0;;;61.0;;
23360;SDS011;11852;50.082;18.554;2023-02-08T06:12:41;108.0;;;59.0;;
23360;SDS011;11852;50.082;18.554;2023-02-08T06:13:52;108.0;;;56.9;;
23360;SDS011;11852;50.082;18.554;2023-02-08T06:15:00;109.4;;;58.4;;
23360;SDS011;11852;50.082;18.554;2023-02-08T06:16:08;110.5;;;58.1;;
23360;SDS011;11852;50.082;18.554;2023-02-08T06:17:19;100.0;;;54.9;;
23360;SDS011;11852;50.082;18.554;2023-02-08T06:18:28;100.6;;;54.6;;
23360;SDS011;11852;50.082;18.554;2023-02-08T06:19:35;109.8;;;57.9;;
23360;SDS011;11852;50.082;18.554;2023-02-08T06:20:44;103.9;;;56.0;;
23360;SDS011;11852;50.082;18.554;2023-02-08T06:21:51;107.8;;;57.7;;
23360;SDS011;11852;50.082;18.554;2023-02-08T06:22:59;112.0;;;57.3;;
23360;SDS011;11852;50.082;18.554;2023-02-08T06:24:07;110.0;;;57.6;;
23360;SDS011;11852;50.082;18.554;2023-02-08T06:25:14;113.5;;;56.1;;
23360;SDS011;11852;50.082;18.554;2023-02-08T06:26:23;120.9;;;59.0;;
23360;SDS011;11852;50.082;18.554;2023-02-08T06:27:31;123.4;;;59.7;;
23360;SDS011;11852;50.082;18.554;2023-02-08T06:28:38;125.1;;;59.6;;
23360;SDS011;11852;50.082;18.554;2023-02-08T06:29:46;125.3;;;60.4;;
23360;SDS011;11852;50.082;18.554;2023-02-08T06:30:54;140.0;;;61.6;;
23360;SDS011;11852;50.082;18.554;2023-02-08T06:32:04;140.0;;;61.6;;
23360;SDS011;11852;50.082;18.554;2023-02-08T06:33:12;155.0;;;67.8;;
23360;SDS011;11852;50.082;18.554;2023-02-08T06:34:20;158.1;;;66.2;;
23360;SDS011;11852;50.082;18.554;2023-02-08T06:35:29;153.3;;;64.7;;
23360;SDS011;11852;50.082;18.554;2023-02-08T06:36:37;157.1;;;66.7;;
23360;SDS011;11852;50.082;18.554;2023-02-08T06:37:44;156.8;;;66.0;;
23360;SDS011;11852;50.082;18.554;2023-02-08T06:38:53;152.1;;;65.2;;
23360;SDS011;11852;50.082;18.554;2023-02-08T06:40:02;161.0;;;67.0;;
23360;SDS011;11852;50.082;18.554;2023-02-08T06:41:10;145.6;;;64.6;;
23360;SDS011;11852;50.082;18.554;2023-02-08T06:42:18;125.5;;;58.8;;
23360;SDS011;11852;50.082;18.554;2023-02-08T06:43:26;131.7;;;60.8;;
23360;SDS011;11852;50.082;18.554;2023-02-08T06:44:33;118.8;;;58.4;;
23360;SDS011;11852;50.082;18.554;2023-02-08T06:45:43;114.7;;;55.7;;
23360;SDS011;11852;50.082;18.554;2023-02-08T06:46:49;113.1;;;58.7;;
23360;SDS011;11852;50.082;18.554;2023-02-08T06:47:57;113.1;;;58.7;;
23360;SDS011;11852;50.082;18.554;2023-02-08T06:49:06;113.1;;;58.7;;
23360;SDS011;11852;50.082;18.554;2023-02-08T06:50:15;112.5;;;58.8;;
23360;SDS011;11852;50.082;18.554;2023-02-08T06:51:23;106.7;;;55.7;;
23360;SDS011;11852;50.082;18.554;2023-02-08T06:52:30;116.2;;;59.7;;
23360;SDS011;11852;50.082;18.554;2023-02-08T06:53:39;116.2;;;60.9;;
23360;SDS011;11852;50.082;18.554;2023-02-08T06:54:47;114.0;;;60.7;;
23360;SDS011;11852;50.082;18.554;2023-02-08T06:55:55;113.1;;;59.7;;
23360;SDS011;11852;50.082;18.554;2023-02-08T06:57:02;130.0;;;68.5;;
23360;SDS011;11852;50.082;18.554;2023-02-08T06:58:10;120.6;;;65.4;;
23360;SDS011;11852;50.082;18.554;2023-02-08T06:59:18;122.8;;;66.0;;
23360;SDS011;11852;50.082;18.554;2023-02-08T07:00:27;104.3;;;54.4;;
23360;SDS011;11852;50.082;18.554;2023-02-08T07:01:35;105.5;;;55.6;;
23360;SDS011;11852;50.082;18.554;2023-02-08T07:02:42;100.7;;;53.1;;
23360;SDS011;11852;50.082;18.554;2023-02-08T07:03:50;99.9;;;52.5;;
23360;SDS011;11852;50.082;18.554;2023-02-08T07:04:58;103.5;;;54.9;;
23360;SDS011;11852;50.082;18.554;2023-02-08T07:07:23;100.9;;;53.7;;
23360;SDS011;11852;50.082;18.554;2023-02-08T07:08:31;103.7;;;54.3;;
23360;SDS011;11852;50.082;18.554;2023-02-08T07:09:40;101.5;;;53.3;;
23360;SDS011;11852;50.082;18.554;2023-02-08T07:10:49;108.3;;;54.7;;
23360;SDS011;11852;50.082;18.554;2023-02-08T07:11:59;96.6;;;51.3;;
23360;SDS011;11852;50.082;18.554;2023-02-08T07:13:08;104.4;;;53.3;;
23360;SDS011;11852;50.082;18.554;2023-02-08T07:14:20;103.1;;;54.9;;
23360;SDS011;11852;50.082;18.554;2023-02-08T07:15:28;108.6;;;55.9;;
23360;SDS011;11852;50.082;18.554;2023-02-08T07:16:36;100.5;;;50.9;;
23360;SDS011;11852;50.082;18.554;2023-02-08T07:17:43;103.8;;;53.7;;
23360;SDS011;11852;50.082;18.554;2023-02-08T07:18:51;104.0;;;53.4;;
23360;SDS011;11852;50.082;18.554;2023-02-08T07:20:01;107.5;;;53.6;;
23360;SDS011;11852;50.082;18.554;2023-02-08T07:21:09;98.6;;;50.3;;
23360;SDS011;11852;50.082;18.554;2023-02-08T07:22:17;97.6;;;51.0;;
23360;SDS011;11852;50.082;18.554;2023-02-08T07:23:26;96.8;;;49.4;;
23360;SDS011;11852;50.082;18.554;2023-02-08T07:24:34;91.0;;;49.1;;
23360;SDS011;11852;50.082;18.554;2023-02-08T07:25:44;90.8;;;48.1;;
23360;SDS011;11852;50.082;18.554;2023-02-08T07:26:51;93.1;;;47.5;;
23360;SDS011;11852;50.082;18.554;2023-02-08T07:28:01;92.4;;;46.5;;
23360;SDS011;11852;50.082;18.554;2023-02-08T07:29:08;87.1;;;44.5;;
23360;SDS011;11852;50.082;18.554;2023-02-08T07:30:16;89.2;;;44.5;;
23360;SDS011;11852;50.082;18.554;2023-02-08T07:31:25;89.3;;;45.6;;